Time;durP1;ratioP1;P1;durP2;ratioP2;P2;SDS_P1;SDS_P2;PMS_P1;PMS_P2;Temp;Humidity;BMP_temperature;BMP_pressure;BME280_temperature;BME280_humidity;BME280_pressure;Samples;Min_cycle;Max_cycle;Signal;HPM_P1;HPM_P2
2022/11/05 00:09:31;;;;;;;24.70;12.15;;;;;;;;;;5101516;27;20534;-68
2022/11/05 00:17:32;;;;;;;24.33;10.55;;;;;;;;;;5110673;27;20073;-68
2022/11/05 00:19:58;;;;;;;20.75;12.20;;;;;;;;;;5109983;28;20028;-68
2022/11/05 00:25:13;;;;;;;24.52;12.02;;;;;;;;;;5109439;27;20071;-68
2022/11/05 00:27:38;;;;;;;20.83;11.35;;;;;;;;;;5104171;28;20031;-68
2022/11/05 00:30:03;;;;;;;24.48;12.55;;;;;;;;;;5110909;27;20079;-68
2022/11/05 00:32:29;;;;;;;24.27;11.70;;;;;;;;;;5094007;27;20546;-68
2022/11/05 00:34:54;;;;;;;23.42;12.07;;;;;;;;;;5110127;27;20034;-68
2022/11/05 00:37:20;;;;;;;25.80;11.77;;;;;;;;;;5112442;27;20102;-69
2022/11/05 00:39:45;;;;;;;22.02;12.13;;;;;;;;;;5110873;27;20280;-69
2022/11/05 00:45:00;;;;;;;20.65;11.00;;;;;;;;;;5106765;27;20039;-69
2022/11/05 00:50:10;;;;;;;20.88;11.27;;;;;;;;;;5102167;28;20112;-69
2022/11/05 00:55:19;;;;;;;21.23;10.48;;;;;;;;;;5105836;28;20042;-69
2022/11/05 00:57:44;;;;;;;24.13;11.20;;;;;;;;;;5102526;27;20027;-69
2022/11/05 01:00:10;;;;;;;20.87;10.40;;;;;;;;;;5102461;27;20020;-69
2022/11/05 01:02:35;;;;;;;24.27;11.75;;;;;;;;;;5105265;27;20324;-68
2022/11/05 01:05:01;;;;;;;22.20;10.90;;;;;;;;;;5104737;27;20059;-68
2022/11/05 01:07:26;;;;;;;17.33;10.93;;;;;;;;;;5101120;28;20352;-68
2022/11/05 01:09:51;;;;;;;20.27;11.53;;;;;;;;;;5110927;27;20069;-68
2022/11/05 01:12:16;;;;;;;19.40;11.23;;;;;;;13.32;nan;99705.97;5088275;28;20295;-69
2022/11/05 01:14:42;;;;;;;19.75;10.70;;;;;;;;;;5108474;27;20024;-69
2022/11/05 01:17:07;;;;;;;22.77;11.40;;;;;;;;;;5086826;28;20118;-68
2022/11/05 01:19:32;;;;;;;19.10;11.57;;;;;;;;;;5112024;27;20076;-69
2022/11/05 01:21:57;;;;;;;18.50;11.17;;;;;;;;;;5108066;28;20081;-69
2022/11/05 01:24:23;;;;;;;23.73;11.87;;;;;;;;;;5115056;27;20049;-69
2022/11/05 01:26:48;;;;;;;21.23;12.10;;;;;;;;;;5104904;28;20275;-69
2022/11/05 01:29:13;;;;;;;19.47;11.73;;;;;;;;;;5104123;28;20766;-67
2022/11/05 01:31:39;;;;;;;25.30;13.27;;;;;;;;;;5109505;27;20325;-70
2022/11/05 01:34:04;;;;;;;19.77;12.67;;;;;;;;;;5112512;28;20015;-69
2022/11/05 01:36:29;;;;;;;20.57;11.53;;;;;;;;;;5102884;28;20123;-69
2022/11/05 01:38:54;;;;;;;22.53;13.00;;;;;;;;;;5110565;28;20275;-68
2022/11/05 01:41:20;;;;;;;25.75;12.00;;;;;;;;;;5090455;28;20038;-68
2022/11/05 01:43:49;;;;;;;21.47;12.30;;;;;;;;;;5112256;28;20027;-69
2022/11/05 01:46:18;;;;;;;23.52;11.73;;;;;;;;;;5085937;28;20032;-69
2022/11/05 01:48:43;;;;;;;23.13;11.85;;;;;;;13.00;nan;99627.59;5103658;28;20068;-69
2022/11/05 01:51:13;;;;;;;20.38;11.32;;;;;;;;;;5104181;28;20056;-69
2022/11/05 01:53:43;;;;;;;22.20;12.30;;;;;;;;;;5094877;28;20024;-69
2022/11/05 01:56:12;;;;;;;20.60;11.63;;;;;;;;;;5086352;28;20122;-69
2022/11/05 01:58:47;;;;;;;29.70;14.30;;;;;;;;;;5102765;28;20032;-69
2022/11/05 02:01:12;;;;;;;19.50;11.27;;;;;;;;;;5107644;28;20024;-68
2022/11/05 02:03:38;;;;;;;22.20;10.98;;;;;;;;;;5108139;27;20646;-70
2022/11/05 02:06:08;;;;;;;21.55;11.05;;;;;;;;;;5107337;27;20482;-69
2022/11/05 02:08:45;;;;;;;26.42;11.70;;;;;;;;;;5116377;27;20031;-69
2022/11/05 02:11:16;;;;;;;19.92;11.60;;;;;;;;;;5112204;27;20135;-69
2022/11/05 02:13:41;;;;;;;19.90;10.68;;;;;;;;;;5107858;27;20378;-69
2022/11/05 02:16:13;;;;;;;23.13;12.30;;;;;;;;;;5115612;27;20027;-70
2022/11/05 02:18:47;;;;;;;18.02;11.43;;;;;;;;;;5097018;28;20430;-68
2022/11/05 02:21:12;;;;;;;29.52;12.00;;;;;;;;;;5093794;28;20031;-69
2022/11/05 02:23:44;;;;;;;18.97;11.33;;;;;;;;;;5095764;28;20032;-68
2022/11/05 02:26:09;;;;;;;18.77;11.50;;;;;;;;;;5091862;28;20036;-69
2022/11/05 02:28:53;;;;;;;19.43;11.33;;;;;;;;;;5096420;28;20476;-69
2022/11/05 02:31:29;;;;;;;22.52;10.70;;;;;;;;;;5109406;27;20034;-69
2022/11/05 02:33:58;;;;;;;23.60;12.10;;;;;;;;;;5096855;27;20095;-70
2022/11/05 02:36:30;;;;;;;23.00;11.20;;;;;;;;;;5106931;27;20036;-69
2022/11/05 02:38:58;;;;;;;20.30;12.10;;;;;;;;;;5104593;28;20493;-69
2022/11/05 02:41:38;;;;;;;23.52;13.40;;;;;;;;;;5106365;28;20036;-69
2022/11/05 02:44:09;;;;;;;26.65;13.50;;;;;;;;;;5096153;27;20035;-69
2022/11/05 02:46:46;;;;;;;23.27;13.27;;;;;;;;;;5109022;27;20027;-69
2022/11/05 02:49:17;;;;;;;27.15;13.65;;;;;;;;;;5093399;27;20033;-68
2022/11/05 02:51:57;;;;;;;29.35;13.40;;;;;;;12.84;nan;99599.53;5111762;27;20023;-69
2022/11/05 02:54:34;;;;;;;22.23;12.68;;;;;;;;;;5104399;27;20085;-68
2022/11/05 02:57:01;;;;;;;22.73;12.35;;;;;;;;;;5103834;27;20143;-68
2022/11/05 02:59:27;;;;;;;20.00;12.55;;;;;;;12.80;nan;99599.22;5097963;27;20384;-69
2022/11/05 03:01:52;;;;;;;21.48;13.20;;;;;;;;;;5093002;28;20028;-69
2022/11/05 03:04:20;;;;;;;25.85;12.68;;;;;;;;;;5091266;28;20499;-69
2022/11/05 03:07:11;;;;;;;25.27;13.00;;;;;;;12.75;nan;99613.22;5111083;27;20415;-69
2022/11/05 03:09:58;;;;;;;25.10;12.93;;;;;;;12.77;nan;99574.13;5109639;27;20030;-69
2022/11/05 03:12:41;;;;;;;22.20;12.38;;;;;;;12.77;nan;99570.69;5086497;28;20101;-69
2022/11/05 03:15:29;;;;;;;21.10;12.18;;;;;;;12.78;nan;99577.56;5088467;28;20040;-69
2022/11/05 03:18:31;;;;;;;23.30;12.38;;;;;;;12.69;nan;99565.91;5090206;28;20050;-68
2022/11/05 03:21:10;;;;;;;20.90;12.15;;;;;;;12.72;nan;99578.63;5087372;28;20085;-69
2022/11/05 03:23:38;;;;;;;25.30;12.90;;;;;;;;;;5092234;28;20036;-69
2022/11/05 03:26:06;;;;;;;22.83;12.80;;;;;;;;;;5081431;28;21243;-70
2022/11/05 03:28:40;;;;;;;30.73;13.57;;;;;;;12.68;nan;99625.06;5079321;28;20024;-69
2022/11/05 03:31:07;;;;;;;26.48;12.90;;;;;;;;;;5081747;28;20032;-69
2022/11/05 03:33:33;;;;;;;27.02;13.23;;;;;;;;;;5084228;28;20027;-69
2022/11/05 03:36:03;;;;;;;24.70;12.38;;;;;;;;;;5083736;28;20019;-69
2022/11/05 03:38:36;;;;;;;26.02;13.73;;;;;;;12.62;nan;99616.34;5089707;28;20024;-69
2022/11/05 03:41:04;;;;;;;23.15;13.43;;;;;;;;;;5085867;28;20051;-68
2022/11/05 03:43:33;;;;;;;25.77;13.57;;;;;;;;;;5091796;28;20081;-69
2022/11/05 03:46:00;;;;;;;21.88;12.70;;;;;;;;;;5089967;28;20027;-69
2022/11/05 03:48:26;;;;;;;20.10;13.07;;;;;;;;;;5087804;28;20086;-69
2022/11/05 03:51:06;;;;;;;23.75;12.85;;;;;;;;;;5086530;28;20478;-68
2022/11/05 03:53:33;;;;;;;21.27;13.05;;;;;;;;;;5085022;28;20111;-69
2022/11/05 03:56:12;;;;;;;23.55;13.45;;;;;;;;;;5092040;28;20020;-69
2022/11/05 03:58:40;;;;;;;27.02;12.98;;;;;;;;;;5081530;28;20563;-68
2022/11/05 04:01:06;;;;;;;24.73;12.93;;;;;;;;;;5088939;28;20547;-69
2022/11/05 04:03:35;;;;;;;24.65;13.95;;;;;;;;;;5083686;28;20059;-68
2022/11/05 04:14:12;;;;;;;23.63;13.13;;;;;;;;;;5113734;27;20054;-70
2022/11/05 04:24:49;;;;;;;23.15;12.82;;;;;;;;;;5101121;27;20039;-69
2022/11/05 04:27:15;;;;;;;22.60;13.20;;;;;;;;;;5105034;27;21032;-68
2022/11/05 04:32:24;;;;;;;30.90;13.73;;;;;;;;;;5101728;27;20043;-74
2022/11/05 04:34:49;;;;;;;23.20;13.40;;;;;;;;;;5109333;27;20028;-74
2022/11/05 04:37:14;;;;;;;23.93;12.77;;;;;;;;;;5110301;27;21053;-74
2022/11/05 04:39:39;;;;;;;28.97;13.33;;;;;;;;;;5111001;27;20023;-74
2022/11/05 04:42:05;;;;;;;22.00;12.93;;;;;;;;;;5118129;27;20030;-73
2022/11/05 04:44:30;;;;;;;22.90;13.00;;;;;;;;;;5110478;27;20065;-74
2022/11/05 04:46:55;;;;;;;22.30;13.20;;;;;;;;;;5096288;28;20031;-74
2022/11/05 04:49:20;;;;;;;24.10;12.77;;;;;;;;;;5106323;28;20396;-74
2022/11/05 04:51:46;;;;;;;20.50;12.57;;;;;;;;;;5112466;27;20377;-74
2022/11/05 04:54:11;;;;;;;23.70;13.00;;;;;;;;;;5110435;27;20037;-74
2022/11/05 04:56:36;;;;;;;22.73;13.02;;;;;;;;;;5098198;27;20071;-73
2022/11/05 04:59:01;;;;;;;22.60;13.30;;;;;;;;;;5092988;27;20145;-73
2022/11/05 05:01:27;;;;;;;23.87;13.53;;;;;;;;;;5106739;28;20458;-72
2022/11/05 05:03:52;;;;;;;24.63;13.60;;;;;;;;;;5105868;27;20268;-74
2022/11/05 05:06:18;;;;;;;30.60;13.63;;;;;;;;;;5087110;28;20019;-73
2022/11/05 05:08:45;;;;;;;22.27;12.52;;;;;;;;;;5103525;27;20119;-73
2022/11/05 05:11:11;;;;;;;21.67;13.30;;;;;;;;;;5086930;28;20059;-73
2022/11/05 05:13:36;;;;;;;27.30;13.88;;;;;;;;;;5102645;27;20019;-73
2022/11/05 05:16:06;;;;;;;24.15;13.15;;;;;;;;;;5108844;27;20539;-74
2022/11/05 05:18:31;;;;;;;;;;;;;;;;;;5090557;28;20046;-74
2022/11/05 05:23:40;;;;;;;25.40;12.63;;;;;;;;;;5105166;27;20046;-70
2022/11/05 05:26:05;;;;;;;101.43;56.93;;;;;;;;;;5112117;27;20361;-70
2022/11/05 05:28:31;;;;;;;109.10;66.73;;;;;;;;;;5107859;27;20463;-70
2022/11/05 05:30:58;;;;;;;110.43;63.00;;;;;;;;;;5090476;28;20019;-70
2022/11/05 05:33:23;;;;;;;66.80;41.40;;;;;;;;;;5105007;28;20028;-70
2022/11/05 05:35:48;;;;;;;45.17;29.23;;;;;;;;;;5106608;28;20037;-70
2022/11/05 05:38:14;;;;;;;29.40;19.83;;;;;;;;;;5078200;28;20773;-70
2022/11/05 05:40:39;;;;;;;32.33;21.00;;;;;;;;;;5099787;28;20300;-70
2022/11/05 05:43:04;;;;;;;33.33;21.20;;;;;;;;;;5102840;28;20024;-70
2022/11/05 05:45:29;;;;;;;44.40;18.30;;;;;;;;;;5083280;28;20056;-71
2022/11/05 05:47:55;;;;;;;24.70;16.13;;;;;;;;;;5103781;28;20494;-70
2022/11/05 05:50:20;;;;;;;26.50;15.70;;;;;;;;;;5106011;28;20031;-71
2022/11/05 05:52:46;;;;;;;23.98;14.73;;;;;;;;;;5088455;28;20030;-69
2022/11/05 05:55:11;;;;;;;24.55;15.80;;;;;;;;;;5100289;28;20032;-70
2022/11/05 05:57:37;;;;;;;25.67;15.50;;;;;;;;;;5101933;28;20020;-69
2022/11/05 06:00:02;;;;;;;33.35;18.80;;;;;;;;;;5099675;28;20024;-72
2022/11/05 06:02:29;;;;;;;32.70;16.40;;;;;;;;;;5085371;28;20050;-70
2022/11/05 06:04:54;;;;;;;28.13;18.13;;;;;;;;;;5099769;28;20089;-70
2022/11/05 06:07:19;;;;;;;39.27;23.70;;;;;;;;;;5086356;28;20031;-72
2022/11/05 06:09:44;;;;;;;29.03;17.23;;;;;;;;;;5103694;28;20299;-70
2022/11/05 06:12:10;;;;;;;31.73;15.63;;;;;;;;;;5081372;28;20118;-71
2022/11/05 06:14:35;;;;;;;29.00;15.23;;;;;;;;;;5091394;28;20030;-71
2022/11/05 06:17:00;;;;;;;27.47;15.63;;;;;;;;;;5089434;28;20703;-71
2022/11/05 06:19:26;;;;;;;28.10;15.57;;;;;;;;;;5104578;28;20290;-68
2022/11/05 06:21:51;;;;;;;28.30;16.10;;;;;;;;;;5102193;28;20035;-70
2022/11/05 06:24:16;;;;;;;30.97;16.97;;;;;;;;;;5090256;28;20079;-75
2022/11/05 06:26:42;;;;;;;24.20;15.43;;;;;;;;;;5098389;28;20288;-74
2022/11/05 06:29:08;;;;;;;31.40;16.13;;;;;;;;;;5095831;28;20276;-76
2022/11/05 06:31:33;;;;;;;31.77;16.63;;;;;;;;;;5083465;28;20200;-75
2022/11/05 06:33:58;;;;;;;33.87;17.37;;;;;;;;;;5107487;28;20511;-76
2022/11/05 06:36:24;;;;;;;28.93;16.57;;;;;;;;;;5102314;28;20287;-74
2022/11/05 06:38:49;;;;;;;24.00;15.93;;;;;;;;;;5108141;28;20051;-75
2022/11/05 06:41:14;;;;;;;31.57;16.50;;;;;;;;;;5087181;28;20112;-75
2022/11/05 06:43:40;;;;;;;30.38;17.73;;;;;;;;;;5105038;28;20741;-75
2022/11/05 06:46:05;;;;;;;30.05;16.10;;;;;;;;;;5106349;28;20024;-75
2022/11/05 06:48:30;;;;;;;31.25;17.05;;;;;;;;;;5092126;28;20085;-75
2022/11/05 06:50:56;;;;;;;31.60;17.45;;;;;;;;;;5097610;27;20049;-75
2022/11/05 06:53:21;;;;;;;34.45;17.63;;;;;;;;;;5084100;27;20023;-74
2022/11/05 06:55:47;;;;;;;30.60;17.10;;;;;;;;;;5106375;27;20024;-73
2022/11/05 06:58:12;;;;;;;33.03;18.08;;;;;;;;;;5093404;28;20842;-74
2022/11/05 07:00:38;;;;;;;34.35;19.73;;;;;;;;;;5109797;27;20035;-75
2022/11/05 07:03:04;;;;;;;37.03;20.55;;;;;;;;;;5111204;27;20036;-72
2022/11/05 07:05:30;;;;;;;35.97;19.70;;;;;;;12.59;nan;99790.38;5091314;27;20034;-69
2022/11/05 07:07:55;;;;;;;34.17;18.30;;;;;;;;;;5107217;27;20497;-77
2022/11/05 07:10:21;;;;;;;32.80;18.57;;;;;;;;;;5095548;27;20051;-78
2022/11/05 07:12:46;;;;;;;32.30;18.42;;;;;;;;;;5105608;28;21024;-79
2022/11/05 07:15:11;;;;;;;39.03;19.98;;;;;;;;;;5109836;27;20078;-78
2022/11/05 07:17:37;;;;;;;47.55;22.67;;;;;;;;;;5096081;28;20031;-72
2022/11/05 07:20:03;;;;;;;49.75;24.10;;;;;;;;;;5106236;27;20397;-71
2022/11/05 07:22:28;;;;;;;44.90;22.50;;;;;;;;;;5104655;27;20054;-71
2022/11/05 07:24:54;;;;;;;43.40;22.08;;;;;;;;;;5087714;27;20020;-71
2022/11/05 07:27:19;;;;;;;44.40;21.30;;;;;;;;;;5107467;27;20034;-72
2022/11/05 07:29:44;;;;;;;41.05;21.60;;;;;;;;;;5089103;28;20039;-71
2022/11/05 07:32:09;;;;;;;49.75;23.73;;;;;;;;;;5110768;27;20093;-72
2022/11/05 07:34:35;;;;;;;48.87;23.60;;;;;;;;;;5096524;27;20024;-72
2022/11/05 07:37:00;;;;;;;51.83;23.45;;;;;;;;;;5113946;27;20385;-72
2022/11/05 07:39:25;;;;;;;46.83;22.85;;;;;;;;;;5110561;27;20511;-73
2022/11/05 07:41:52;;;;;;;40.47;22.43;;;;;;;;;;5108645;27;20152;-73
2022/11/05 07:44:17;;;;;;;42.47;21.75;;;;;;;;;;5106377;27;20277;-73
2022/11/05 07:46:42;;;;;;;40.67;21.73;;;;;;;;;;5113361;27;20023;-73
2022/11/05 07:49:08;;;;;;;40.20;22.13;;;;;;;;;;5107166;27;20272;-73
2022/11/05 07:51:33;;;;;;;43.47;22.90;;;;;;;;;;5115875;27;20928;-72
2022/11/05 07:53:58;;;;;;;43.38;23.02;;;;;;;;;;5103193;27;20271;-72
2022/11/05 07:56:24;;;;;;;39.17;22.65;;;;;;;;;;5094171;27;20034;-73
2022/11/05 07:58:49;;;;;;;40.15;21.67;;;;;;;;;;5104715;27;20020;-73
2022/11/05 08:01:14;;;;;;;40.13;20.80;;;;;;;;;;5104377;27;20130;-73
2022/11/05 08:03:39;;;;;;;46.05;21.45;;;;;;;;;;5104260;28;20493;-71
2022/11/05 08:06:05;;;;;;;39.63;21.85;;;;;;;;;;5110236;27;20155;-72
2022/11/05 08:08:30;;;;;;;45.97;23.23;;;;;;;;;;5107297;27;20050;-73
2022/11/05 08:11:05;;;;;;;46.13;22.97;;;;;;;;;;5092401;28;20044;-72
2022/11/05 08:13:31;;;;;;;40.67;22.73;;;;;;;;;;5085488;28;20966;-72
2022/11/05 08:15:56;;;;;;;38.20;21.75;;;;;;;;;;5089903;28;20110;-72
2022/11/05 08:18:22;;;;;;;37.33;21.40;;;;;;;;;;5089864;28;20481;-72
2022/11/05 08:20:47;;;;;;;39.70;22.13;;;;;;;;;;5111218;27;20812;-71
2022/11/05 08:23:13;;;;;;;40.58;22.33;;;;;;;;;;5103424;27;20043;-71
2022/11/05 08:25:38;;;;;;;38.95;21.35;;;;;;;;;;5095001;27;20085;-72
2022/11/05 08:28:06;;;;;;;36.40;21.05;;;;;;;;;;5107445;27;20030;-72
2022/11/05 08:30:32;;;;;;;46.22;22.80;;;;;;;;;;5111440;27;20031;-72
2022/11/05 08:32:58;;;;;;;37.20;21.63;;;;;;;;;;5092235;28;20081;-72
2022/11/05 08:35:23;;;;;;;39.50;21.85;;;;;;;;;;5098936;27;20038;-72
2022/11/05 08:37:48;;;;;;;38.47;20.80;;;;;;;;;;5107215;27;20110;-73
2022/11/05 08:40:14;;;;;;;39.50;21.17;;;;;;;;;;5094242;27;20110;-72
2022/11/05 08:42:39;;;;;;;39.10;21.77;;;;;;;;;;5091945;28;20472;-72
2022/11/05 08:45:04;;;;;;;38.20;21.43;;;;;;;;;;5114322;27;20264;-73
2022/11/05 08:47:30;;;;;;;38.35;22.05;;;;;;;;;;5092802;28;20028;-72
2022/11/05 08:49:55;;;;;;;42.50;20.83;;;;;;;;;;5114224;27;20016;-71
2022/11/05 08:52:20;;;;;;;37.10;20.47;;;;;;;;;;5108819;27;20023;-73
2022/11/05 08:54:45;;;;;;;39.50;20.87;;;;;;;;;;5093469;27;20339;-72
2022/11/05 08:57:11;;;;;;;35.00;20.73;;;;;;;;;;5106865;28;20348;-72
2022/11/05 08:59:36;;;;;;;36.20;20.47;;;;;;;;;;5101936;27;20076;-73
2022/11/05 09:02:01;;;;;;;36.70;22.48;;;;;;;13.38;nan;99827.38;5089187;28;20283;-73
2022/11/05 09:04:27;;;;;;;40.85;21.80;;;;;;;13.47;nan;99834.81;5097439;28;20035;-73
2022/11/05 09:06:52;;;;;;;36.28;20.67;;;;;;;;;;5095021;28;20503;-72
2022/11/05 09:09:17;;;;;;;38.50;21.15;;;;;;;;;;5104369;27;20024;-72
2022/11/05 09:11:43;;;;;;;38.27;20.83;;;;;;;13.51;nan;99851.75;5083009;28;20051;-72
2022/11/05 09:14:08;;;;;;;35.70;20.58;;;;;;;13.63;nan;99860.28;5093258;28;20011;-72
2022/11/05 09:16:35;;;;;;;39.42;21.08;;;;;;;13.61;nan;99849.16;5103944;27;20023;-72
2022/11/05 09:19:03;;;;;;;37.90;21.95;;;;;;;13.65;nan;99847.59;5087883;28;20019;-72
2022/11/05 09:21:29;;;;;;;36.10;21.92;;;;;;;13.70;nan;99849.47;5089546;28;20111;-72
2022/11/05 09:23:54;;;;;;;42.25;22.55;;;;;;;;;;5113602;27;20169;-72
2022/11/05 09:26:19;;;;;;;40.27;23.17;;;;;;;;;;5088396;28;20046;-72
2022/11/05 09:28:44;;;;;;;40.20;22.23;;;;;;;;;;5104932;28;20307;-71
2022/11/05 09:31:10;;;;;;;41.13;22.47;;;;;;;;;;5109202;27;20059;-70
2022/11/05 09:33:36;;;;;;;44.63;22.98;;;;;;;;;;5112219;27;20538;-73
2022/11/05 09:36:03;;;;;;;47.85;24.63;;;;;;;13.89;nan;99871.75;5104404;28;20080;-71
2022/11/05 09:38:29;;;;;;;41.78;23.65;;;;;;;;;;5096574;28;20042;-71
2022/11/05 09:40:54;;;;;;;41.00;23.50;;;;;;;;;;5100493;28;20396;-71
2022/11/05 09:43:22;;;;;;;42.85;23.73;;;;;;;;;;5110037;28;20057;-70
2022/11/05 09:45:49;;;;;;;46.17;25.70;;;;;;;;;;5110476;28;20023;-70
2022/11/05 09:48:16;;;;;;;43.45;27.10;;;;;;;;;;5088715;28;20038;-71
2022/11/05 09:50:43;;;;;;;48.67;27.15;;;;;;;;;;5101170;28;20035;-71
2022/11/05 09:53:11;;;;;;;41.85;25.30;;;;;;;;;;5109304;28;20019;-71
2022/11/05 09:55:38;;;;;;;35.77;23.60;;;;;;;;;;5085496;28;20031;-70
2022/11/05 09:58:14;;;;;;;42.10;24.70;;;;;;;;;;5101715;28;20639;-71
2022/11/05 10:00:39;;;;;;;43.40;25.05;;;;;;;;;;5105306;28;20027;-72
2022/11/05 10:03:11;;;;;;;45.75;25.95;;;;;;;;;;5106826;28;20031;-70
2022/11/05 10:05:37;;;;;;;37.78;23.90;;;;;;;;;;5085953;28;20114;-70
2022/11/05 10:08:11;;;;;;;46.70;25.30;;;;;;;;;;5104425;28;20388;-71
2022/11/05 10:10:51;;;;;;;43.67;25.33;;;;;;;;;;5104775;28;20042;-71
2022/11/05 10:13:24;;;;;;;46.95;25.00;;;;;;;;;;5084181;28;20043;-72
2022/11/05 10:16:09;;;;;;;40.97;23.65;;;;;;;;;;5090251;28;20077;-71
2022/11/05 10:18:40;;;;;;;44.35;24.45;;;;;;;;;;5070693;28;20479;-71
2022/11/05 10:21:06;;;;;;;38.90;23.25;;;;;;;;;;5100078;28;20019;-71
2022/11/05 10:23:31;;;;;;;42.58;23.83;;;;;;;;;;5090401;28;20439;-70
2022/11/05 10:26:09;;;;;;;40.72;23.20;;;;;;;;;;5082843;28;20036;-72
2022/11/05 10:28:35;;;;;;;44.78;23.27;;;;;;;;;;5082955;28;20034;-71
2022/11/05 10:31:01;;;;;;;42.42;23.40;;;;;;;;;;5101944;27;20028;-71
2022/11/05 10:33:29;;;;;;;45.55;25.85;;;;;;;;;;5077988;28;20051;-73
2022/11/05 10:35:58;;;;;;;41.88;25.80;;;;;;;;;;5079829;28;20419;-71
2022/11/05 10:38:23;;;;;;;41.47;24.27;;;;;;;;;;5103172;27;20272;-71
2022/11/05 10:40:48;;;;;;;40.97;23.80;;;;;;;;;;5083935;28;20473;-72
2022/11/05 10:43:14;;;;;;;42.13;23.17;;;;;;;;;;5101598;27;20028;-71
2022/11/05 10:45:58;;;;;;;41.30;23.90;;;;;;;;;;5105462;27;20023;-73
2022/11/05 10:48:30;;;;;;;40.88;22.80;;;;;;;;;;5093496;27;20027;-71
2022/11/05 10:50:56;;;;;;;42.10;22.92;;;;;;;;;;5094380;28;20492;-70
2022/11/05 10:53:25;;;;;;;51.80;25.95;;;;;;;;;;5102484;27;20027;-70
2022/11/05 10:55:50;;;;;;;47.80;25.45;;;;;;;;;;5101684;27;20031;-71
2022/11/05 10:58:16;;;;;;;42.55;23.85;;;;;;;;;;5094799;28;20116;-70
2022/11/05 11:00:42;;;;;;;42.57;24.57;;;;;;;;;;5106851;27;20035;-69
2022/11/05 11:03:27;;;;;;;52.88;25.50;;;;;;;;;;5107787;27;20280;-70
2022/11/05 11:06:00;;;;;;;44.00;23.30;;;;;;;;;;5096300;28;20024;-70
2022/11/05 11:08:26;;;;;;;42.53;22.98;;;;;;;;;;5109958;27;20024;-71
2022/11/05 11:10:54;;;;;;;51.13;27.77;;;;;;;;;;5111836;27;20027;-70
2022/11/05 11:13:20;;;;;;;53.03;27.13;;;;;;;;;;5110973;27;20397;-70
2022/11/05 11:15:45;;;;;;;49.28;25.17;;;;;;;;;;5107367;27;20027;-71
2022/11/05 11:18:36;;;;;;;42.45;23.55;;;;;;;;;;5092237;28;20038;-70
2022/11/05 11:21:22;;;;;;;42.08;23.77;;;;;;;;;;5106975;27;20442;-71
2022/11/05 11:23:54;;;;;;;45.80;25.23;;;;;;;;;;5105222;27;20032;-71
2022/11/05 11:26:20;;;;;;;41.50;24.83;;;;;;;;;;5083999;28;20043;-70
2022/11/05 11:28:56;;;;;;;43.17;25.70;;;;;;;;;;5110002;27;20030;-72
2022/11/05 11:31:24;;;;;;;48.65;27.17;;;;;;;;;;5103197;27;20027;-69
2022/11/05 11:33:51;;;;;;;54.50;29.92;;;;;;;;;;5086687;28;20015;-70
2022/11/05 11:36:18;;;;;;;49.30;26.90;;;;;;;;;;5109282;27;20024;-70
2022/11/05 11:38:44;;;;;;;42.65;24.30;;;;;;;;;;5104912;27;20101;-70
2022/11/05 11:41:29;;;;;;;41.63;24.45;;;;;;;15.42;nan;99939.22;5092645;28;20124;-70
2022/11/05 11:44:05;;;;;;;45.95;25.15;;;;;;;;;;5114482;27;20532;-70
2022/11/05 11:46:31;;;;;;;43.47;26.58;;;;;;;;;;5106019;27;20023;-71
2022/11/05 11:48:57;;;;;;;45.00;24.85;;;;;;;;;;5091073;28;20039;-70
2022/11/05 11:51:23;;;;;;;43.40;24.70;;;;;;;;;;5112075;27;20047;-71
2022/11/05 11:53:48;;;;;;;39.73;23.33;;;;;;;;;;5094208;28;20365;-70
2022/11/05 11:56:18;;;;;;;44.50;25.05;;;;;;;;;;5105224;27;20279;-71
2022/11/05 11:58:44;;;;;;;42.85;24.90;;;;;;;;;;5107514;27;20030;-71
2022/11/05 12:01:22;;;;;;;46.58;24.55;;;;;;;;;;5091384;27;20172;-72
2022/11/05 12:03:55;;;;;;;38.72;23.65;;;;;;;;;;5108629;27;20027;-70
2022/11/05 12:06:26;;;;;;;38.60;23.20;;;;;;;;;;5095231;28;20031;-70
2022/11/05 12:08:52;;;;;;;42.10;24.73;;;;;;;;;;5106148;27;20241;-70
2022/11/05 12:11:21;;;;;;;41.13;24.27;;;;;;;;;;5082838;28;20170;-70
2022/11/05 12:13:46;;;;;;;40.60;23.88;;;;;;;;;;5102293;27;20055;-69
2022/11/05 12:16:17;;;;;;;45.43;26.70;;;;;;;;;;5102567;27;20059;-70
2022/11/05 12:18:52;;;;;;;48.17;26.58;;;;;;;;;;5104010;27;20147;-69
2022/11/05 12:21:21;;;;;;;49.65;26.67;;;;;;;;;;5086191;28;20024;-70
2022/11/05 12:23:57;;;;;;;43.95;25.67;;;;;;;;;;5087559;27;20028;-70
2022/11/05 12:26:33;;;;;;;46.15;26.67;;;;;;;;;;5082722;28;20063;-70
2022/11/05 12:29:17;;;;;;;47.33;29.17;;;;;;;;;;5105163;27;20475;-69
2022/11/05 12:32:09;;;;;;;47.45;29.58;;;;;;;;;;5113586;27;20031;-70
2022/11/05 12:34:43;;;;;;;52.08;28.73;;;;;;;;;;5102167;27;20032;-69
2022/11/05 12:37:14;;;;;;;53.00;30.73;;;;;;;;;;5106083;27;20035;-70
2022/11/05 12:39:46;;;;;;;55.13;32.83;;;;;;;;;;5104779;27;20526;-70
2022/11/05 12:42:17;;;;;;;56.80;33.08;;;;;;;;;;5105269;27;20039;-70
2022/11/05 12:44:58;;;;;;;52.63;32.70;;;;;;;;;;5093020;28;20047;-69
2022/11/05 12:47:26;;;;;;;50.88;31.30;;;;;;;;;;5086948;28;20035;-70
2022/11/05 12:49:59;;;;;;;55.50;31.95;;;;;;;;;;5093182;27;20023;-69
2022/11/05 12:52:27;;;;;;;55.33;31.67;;;;;;;;;;5096594;27;20084;-72
2022/11/05 12:55:02;;;;;;;56.05;31.17;;;;;;;;;;5094631;28;20023;-72
2022/11/05 12:57:28;;;;;;;58.47;31.50;;;;;;;;;;5105800;27;20118;-73
2022/11/05 12:59:59;;;;;;;55.38;32.60;;;;;;;;;;5102525;27;20087;-68
2022/11/05 13:02:36;;;;;;;55.50;32.42;;;;;;;;;;5099349;27;20027;-70
2022/11/05 13:05:14;;;;;;;53.92;31.00;;;;;;;;;;5098284;27;20462;-70
2022/11/05 13:07:43;;;;;;;52.20;31.67;;;;;;;;;;5092746;28;20031;-70
2022/11/05 13:10:08;;;;;;;54.83;32.67;;;;;;;;;;5104801;27;20054;-70
2022/11/05 13:12:36;;;;;;;55.03;32.63;;;;;;;;;;5086900;28;20502;-70
2022/11/05 13:15:15;;;;;;;59.13;32.05;;;;;;;;;;5081658;28;20747;-69
2022/11/05 13:17:44;;;;;;;54.47;31.48;;;;;;;;;;5083580;28;20021;-70
2022/11/05 13:20:14;;;;;;;59.27;32.73;;;;;;;;;;5084994;28;20040;-70
2022/11/05 13:23:10;;;;;;;69.25;33.78;;;;;;;;;;5088233;28;20031;-71
2022/11/05 13:25:37;;;;;;;62.17;33.13;;;;;;;;;;5082138;28;20028;-71
2022/11/05 13:28:21;;;;;;;61.20;35.58;;;;;;;;;;5087366;28;20138;-71
2022/11/05 13:30:48;;;;;;;61.70;33.38;;;;;;;;;;5093211;28;20028;-70
2022/11/05 13:33:15;;;;;;;59.50;33.83;;;;;;;;;;5084673;28;20019;-70
2022/11/05 13:35:43;;;;;;;57.25;33.60;;;;;;;;;;5096203;28;20052;-70
2022/11/05 13:41:00;;;;;;;59.25;33.55;;;;;;;;;;5088244;28;20027;-71
2022/11/05 13:43:40;;;;;;;60.00;34.15;;;;;;;;;;5088596;28;20466;-69
2022/11/05 13:46:22;;;;;;;61.45;35.00;;;;;;;15.76;nan;99947.41;5093107;28;20096;-70
2022/11/05 13:48:53;;;;;;;67.00;37.25;;;;;;;;;;5081068;28;20130;-71
2022/11/05 13:51:27;;;;;;;58.65;34.42;;;;;;;;;;5079080;28;20111;-69
2022/11/05 13:54:13;;;;;;;66.72;35.42;;;;;;;;;;5075164;28;20481;-69
2022/11/05 13:56:45;;;;;;;66.22;35.15;;;;;;;;;;5084049;28;20020;-69
2022/11/05 13:59:13;;;;;;;63.03;36.92;;;;;;;;;;5077635;28;20028;-69
2022/11/05 14:01:55;;;;;;;65.90;37.67;;;;;;;;;;5085575;28;20048;-69
2022/11/05 14:04:30;;;;;;;66.50;38.10;;;;;;;;;;5093326;28;20098;-69
2022/11/05 14:07:06;;;;;;;67.03;37.13;;;;;;;;;;5086265;28;20027;-68
2022/11/05 14:09:33;;;;;;;64.80;36.92;;;;;;;;;;5089529;28;20028;-68
2022/11/05 14:11:59;;;;;;;69.18;37.03;;;;;;;;;;5100224;27;20047;-68
2022/11/05 14:14:26;;;;;;;67.45;37.40;;;;;;;;;;5110247;27;20028;-68
2022/11/05 14:16:52;;;;;;;67.88;36.80;;;;;;;;;;5100919;27;20035;-69
2022/11/05 14:19:17;;;;;;;65.00;36.78;;;;;;;;;;5087987;28;20035;-68
2022/11/05 14:21:53;;;;;;;61.03;37.70;;;;;;;;;;5096015;27;20031;-69
2022/11/05 14:24:21;;;;;;;66.68;37.33;;;;;;;;;;5092734;28;20024;-69
2022/11/05 14:27:01;;;;;;;67.80;37.88;;;;;;;;;;5090638;28;20032;-69
2022/11/05 14:29:40;;;;;;;63.80;36.63;;;;;;;;;;5105424;27;20387;-69
2022/11/05 14:32:21;;;;;;;65.20;38.40;;;;;;;;;;5112774;27;20051;-69
2022/11/05 14:35:03;;;;;;;69.00;37.83;;;;;;;;;;5106362;27;20029;-69
2022/11/05 14:37:33;;;;;;;78.85;38.85;;;;;;;;;;5109082;27;20389;-69
2022/11/05 14:40:18;;;;;;;65.72;38.15;;;;;;;;;;5096200;27;20046;-69
2022/11/05 14:42:48;;;;;;;64.47;37.08;;;;;;;;;;5090642;28;20028;-69
2022/11/05 14:45:13;;;;;;;;;;;;;;;;;;5111855;27;20911;-69
2022/11/05 14:47:40;;;;;;;71.97;40.37;;;;;;;;;;5106834;27;19943;-69
2022/11/05 14:50:06;;;;;;;71.70;40.72;;;;;;;;;;5090622;28;20284;-69
2022/11/05 14:52:31;;;;;;;78.07;42.07;;;;;;;;;;5107938;27;20024;-69
2022/11/05 14:54:57;;;;;;;74.00;40.80;;;;;;;;;;5107502;27;20099;-69
2022/11/05 14:57:41;;;;;;;78.38;42.47;;;;;;;;;;5090649;28;20386;-69
2022/11/05 15:00:25;;;;;;;649.90;155.02;;;;;;;;;;5094505;28;20035;-69
2022/11/05 15:02:57;;;;;;;119.95;66.88;;;;;;;;;;5089412;28;20031;-69